sensor_id;sensor_type;location;lat;lon;timestamp;P1;durP1;ratioP1;P2;durP2;ratioP2
16127;SDS011;8168;49.036;7.690;2024-01-30T00:01:52;13.90;;;6.83;;
16127;SDS011;8168;49.036;7.690;2024-01-30T00:04:23;21.90;;;7.40;;
16127;SDS011;8168;49.036;7.690;2024-01-30T00:06:54;13.17;;;7.07;;
16127;SDS011;8168;49.036;7.690;2024-01-30T00:09:25;11.53;;;7.07;;
16127;SDS011;8168;49.036;7.690;2024-01-30T00:11:56;10.57;;;6.87;;
16127;SDS011;8168;49.036;7.690;2024-01-30T00:14:27;11.93;;;6.40;;
16127;SDS011;8168;49.036;7.690;2024-01-30T00:16:58;10.03;;;6.30;;
16127;SDS011;8168;49.036;7.690;2024-01-30T00:19:29;11.53;;;6.67;;
16127;SDS011;8168;49.036;7.690;2024-01-30T00:22:00;13.23;;;7.10;;
16127;SDS011;8168;49.036;7.690;2024-01-30T00:24:31;10.90;;;6.87;;
16127;SDS011;8168;49.036;7.690;2024-01-30T00:27:01;9.90;;;6.17;;
16127;SDS011;8168;49.036;7.690;2024-01-30T00:29:32;13.07;;;6.40;;
16127;SDS011;8168;49.036;7.690;2024-01-30T00:32:03;10.60;;;6.80;;
16127;SDS011;8168;49.036;7.690;2024-01-30T00:34:34;15.40;;;7.10;;
16127;SDS011;8168;49.036;7.690;2024-01-30T00:37:05;18.27;;;8.83;;
16127;SDS011;8168;49.036;7.690;2024-01-30T00:39:35;15.50;;;8.53;;
16127;SDS011;8168;49.036;7.690;2024-01-30T00:42:06;12.77;;;7.23;;
16127;SDS011;8168;49.036;7.690;2024-01-30T00:44:37;12.53;;;7.03;;
16127;SDS011;8168;49.036;7.690;2024-01-30T00:47:08;10.53;;;6.50;;
16127;SDS011;8168;49.036;7.690;2024-01-30T00:49:39;10.90;;;6.47;;
16127;SDS011;8168;49.036;7.690;2024-01-30T00:52:10;11.73;;;5.70;;
16127;SDS011;8168;49.036;7.690;2024-01-30T00:54:41;12.57;;;6.90;;
16127;SDS011;8168;49.036;7.690;2024-01-30T00:57:12;10.13;;;5.80;;
16127;SDS011;8168;49.036;7.690;2024-01-30T00:59:42;14.00;;;6.27;;
16127;SDS011;8168;49.036;7.690;2024-01-30T01:02:13;14.47;;;6.33;;
16127;SDS011;8168;49.036;7.690;2024-01-30T01:04:47;12.57;;;6.60;;
16127;SDS011;8168;49.036;7.690;2024-01-30T01:07:18;13.10;;;6.97;;
16127;SDS011;8168;49.036;7.690;2024-01-30T01:09:49;11.90;;;7.40;;
16127;SDS011;8168;49.036;7.690;2024-01-30T01:12:20;13.93;;;6.83;;
16127;SDS011;8168;49.036;7.690;2024-01-30T01:14:51;10.43;;;7.33;;
16127;SDS011;8168;49.036;7.690;2024-01-30T01:17:22;13.93;;;7.17;;
16127;SDS011;8168;49.036;7.690;2024-01-30T01:19:52;15.37;;;7.70;;
16127;SDS011;8168;49.036;7.690;2024-01-30T01:22:23;12.30;;;6.77;;
16127;SDS011;8168;49.036;7.690;2024-01-30T01:24:54;12.77;;;6.50;;
16127;SDS011;8168;49.036;7.690;2024-01-30T01:27:24;10.00;;;6.57;;
16127;SDS011;8168;49.036;7.690;2024-01-30T01:29:55;12.10;;;6.90;;
16127;SDS011;8168;49.036;7.690;2024-01-30T01:32:26;12.63;;;6.00;;
16127;SDS011;8168;49.036;7.690;2024-01-30T01:34:56;11.60;;;6.43;;
16127;SDS011;8168;49.036;7.690;2024-01-30T01:37:27;12.30;;;6.07;;
16127;SDS011;8168;49.036;7.690;2024-01-30T01:39:58;12.83;;;6.23;;
16127;SDS011;8168;49.036;7.690;2024-01-30T01:42:28;9.57;;;5.37;;
16127;SDS011;8168;49.036;7.690;2024-01-30T01:44:59;7.10;;;5.10;;
16127;SDS011;8168;49.036;7.690;2024-01-30T01:47:29;14.30;;;7.20;;
16127;SDS011;8168;49.036;7.690;2024-01-30T01:50:00;18.40;;;6.73;;
16127;SDS011;8168;49.036;7.690;2024-01-30T01:52:31;11.63;;;6.00;;
16127;SDS011;8168;49.036;7.690;2024-01-30T01:55:02;8.77;;;5.50;;
16127;SDS011;8168;49.036;7.690;2024-01-30T01:57:33;10.07;;;5.33;;
16127;SDS011;8168;49.036;7.690;2024-01-30T02:00:04;8.27;;;5.63;;
16127;SDS011;8168;49.036;7.690;2024-01-30T02:02:36;9.33;;;5.37;;
16127;SDS011;8168;49.036;7.690;2024-01-30T02:05:07;10.60;;;6.13;;
16127;SDS011;8168;49.036;7.690;2024-01-30T02:07:39;9.77;;;5.90;;
16127;SDS011;8168;49.036;7.690;2024-01-30T02:10:10;8.23;;;5.50;;
16127;SDS011;8168;49.036;7.690;2024-01-30T02:12:40;9.33;;;5.77;;
16127;SDS011;8168;49.036;7.690;2024-01-30T02:15:13;9.93;;;6.00;;
16127;SDS011;8168;49.036;7.690;2024-01-30T02:17:44;12.40;;;6.00;;
16127;SDS011;8168;49.036;7.690;2024-01-30T02:20:14;11.63;;;5.03;;
16127;SDS011;8168;49.036;7.690;2024-01-30T02:22:45;9.83;;;5.70;;
16127;SDS011;8168;49.036;7.690;2024-01-30T02:25:16;11.57;;;5.90;;
16127;SDS011;8168;49.036;7.690;2024-01-30T02:27:47;13.13;;;6.23;;
16127;SDS011;8168;49.036;7.690;2024-01-30T02:30:18;11.67;;;5.30;;
16127;SDS011;8168;49.036;7.690;2024-01-30T02:32:48;15.90;;;6.93;;
16127;SDS011;8168;49.036;7.690;2024-01-30T02:35:19;17.70;;;6.83;;
16127;SDS011;8168;49.036;7.690;2024-01-30T02:37:49;16.47;;;7.37;;
16127;SDS011;8168;49.036;7.690;2024-01-30T02:40:20;14.47;;;6.90;;
16127;SDS011;8168;49.036;7.690;2024-01-30T02:42:51;10.33;;;6.03;;
16127;SDS011;8168;49.036;7.690;2024-01-30T02:45:21;9.67;;;5.70;;
16127;SDS011;8168;49.036;7.690;2024-01-30T02:47:52;13.23;;;6.40;;
16127;SDS011;8168;49.036;7.690;2024-01-30T02:50:23;9.53;;;5.00;;
16127;SDS011;8168;49.036;7.690;2024-01-30T02:52:53;8.83;;;5.37;;
16127;SDS011;8168;49.036;7.690;2024-01-30T02:55:24;8.77;;;5.20;;
16127;SDS011;8168;49.036;7.690;2024-01-30T02:57:54;8.67;;;4.87;;
16127;SDS011;8168;49.036;7.690;2024-01-30T03:00:25;9.67;;;5.83;;
16127;SDS011;8168;49.036;7.690;2024-01-30T03:02:56;9.47;;;5.33;;
16127;SDS011;8168;49.036;7.690;2024-01-30T03:05:26;7.17;;;5.23;;
16127;SDS011;8168;49.036;7.690;2024-01-30T03:07:57;9.60;;;5.63;;
16127;SDS011;8168;49.036;7.690;2024-01-30T03:10:27;8.97;;;5.03;;
16127;SDS011;8168;49.036;7.690;2024-01-30T03:12:58;11.13;;;4.90;;
16127;SDS011;8168;49.036;7.690;2024-01-30T03:15:29;9.87;;;5.47;;
16127;SDS011;8168;49.036;7.690;2024-01-30T03:17:59;6.73;;;5.23;;
16127;SDS011;8168;49.036;7.690;2024-01-30T03:20:30;11.30;;;5.50;;
16127;SDS011;8168;49.036;7.690;2024-01-30T03:23:01;8.07;;;4.83;;
16127;SDS011;8168;49.036;7.690;2024-01-30T03:25:32;11.23;;;6.30;;
16127;SDS011;8168;49.036;7.690;2024-01-30T03:28:03;11.27;;;5.30;;
16127;SDS011;8168;49.036;7.690;2024-01-30T03:30:34;14.03;;;5.77;;
16127;SDS011;8168;49.036;7.690;2024-01-30T03:33:05;11.97;;;5.67;;
16127;SDS011;8168;49.036;7.690;2024-01-30T03:35:35;7.03;;;4.13;;
16127;SDS011;8168;49.036;7.690;2024-01-30T03:38:06;8.77;;;4.80;;
16127;SDS011;8168;49.036;7.690;2024-01-30T03:40:37;10.27;;;4.60;;
16127;SDS011;8168;49.036;7.690;2024-01-30T03:43:07;10.23;;;4.63;;
16127;SDS011;8168;49.036;7.690;2024-01-30T03:45:38;9.33;;;4.93;;
16127;SDS011;8168;49.036;7.690;2024-01-30T03:48:09;13.20;;;5.43;;
16127;SDS011;8168;49.036;7.690;2024-01-30T03:50:39;9.67;;;4.70;;
16127;SDS011;8168;49.036;7.690;2024-01-30T03:53:10;8.13;;;4.47;;
16127;SDS011;8168;49.036;7.690;2024-01-30T03:55:40;10.40;;;5.23;;
16127;SDS011;8168;49.036;7.690;2024-01-30T03:58:11;10.80;;;5.77;;
16127;SDS011;8168;49.036;7.690;2024-01-30T04:00:42;7.73;;;4.77;;
16127;SDS011;8168;49.036;7.690;2024-01-30T04:03:12;6.47;;;4.73;;
16127;SDS011;8168;49.036;7.690;2024-01-30T04:05:45;7.47;;;4.60;;
16127;SDS011;8168;49.036;7.690;2024-01-30T04:08:16;10.47;;;4.80;;
16127;SDS011;8168;49.036;7.690;2024-01-30T04:10:47;5.63;;;4.33;;
16127;SDS011;8168;49.036;7.690;2024-01-30T04:13:18;6.67;;;4.00;;
16127;SDS011;8168;49.036;7.690;2024-01-30T04:15:49;6.23;;;4.63;;
16127;SDS011;8168;49.036;7.690;2024-01-30T04:18:24;6.27;;;4.17;;
16127;SDS011;8168;49.036;7.690;2024-01-30T04:20:55;7.70;;;4.60;;
16127;SDS011;8168;49.036;7.690;2024-01-30T04:23:26;5.43;;;4.27;;
16127;SDS011;8168;49.036;7.690;2024-01-30T04:25:57;4.83;;;3.73;;
16127;SDS011;8168;49.036;7.690;2024-01-30T04:28:28;7.93;;;4.00;;
16127;SDS011;8168;49.036;7.690;2024-01-30T04:31:00;6.67;;;4.30;;
16127;SDS011;8168;49.036;7.690;2024-01-30T04:33:31;5.87;;;3.57;;
16127;SDS011;8168;49.036;7.690;2024-01-30T04:36:02;5.50;;;3.77;;
16127;SDS011;8168;49.036;7.690;2024-01-30T04:38:33;5.43;;;3.83;;
16127;SDS011;8168;49.036;7.690;2024-01-30T04:41:04;6.43;;;3.27;;
16127;SDS011;8168;49.036;7.690;2024-01-30T04:43:35;6.73;;;3.80;;
16127;SDS011;8168;49.036;7.690;2024-01-30T04:46:06;8.17;;;4.00;;
16127;SDS011;8168;49.036;7.690;2024-01-30T04:48:37;7.30;;;3.50;;
16127;SDS011;8168;49.036;7.690;2024-01-30T04:51:08;5.90;;;3.40;;
16127;SDS011;8168;49.036;7.690;2024-01-30T04:53:39;4.57;;;3.87;;
16127;SDS011;8168;49.036;7.690;2024-01-30T04:56:10;7.27;;;4.20;;
16127;SDS011;8168;49.036;7.690;2024-01-30T04:58:41;5.00;;;3.53;;
16127;SDS011;8168;49.036;7.690;2024-01-30T05:01:18;6.07;;;3.83;;
16127;SDS011;8168;49.036;7.690;2024-01-30T05:03:48;6.00;;;4.13;;
16127;SDS011;8168;49.036;7.690;2024-01-30T05:06:25;5.53;;;3.97;;
16127;SDS011;8168;49.036;7.690;2024-01-30T05:08:57;8.10;;;4.67;;
16127;SDS011;8168;49.036;7.690;2024-01-30T05:11:28;8.67;;;5.83;;
16127;SDS011;8168;49.036;7.690;2024-01-30T05:13:59;5.53;;;4.37;;
16127;SDS011;8168;49.036;7.690;2024-01-30T05:16:30;8.33;;;5.60;;
16127;SDS011;8168;49.036;7.690;2024-01-30T05:19:01;6.10;;;4.43;;
16127;SDS011;8168;49.036;7.690;2024-01-30T05:21:31;7.13;;;4.40;;
16127;SDS011;8168;49.036;7.690;2024-01-30T05:24:03;4.80;;;4.00;;
16127;SDS011;8168;49.036;7.690;2024-01-30T05:26:34;8.30;;;5.13;;
16127;SDS011;8168;49.036;7.690;2024-01-30T05:29:06;6.33;;;4.77;;
16127;SDS011;8168;49.036;7.690;2024-01-30T05:31:37;6.93;;;5.17;;
16127;SDS011;8168;49.036;7.690;2024-01-30T05:34:08;7.50;;;4.50;;
16127;SDS011;8168;49.036;7.690;2024-01-30T05:36:39;6.40;;;4.70;;
16127;SDS011;8168;49.036;7.690;2024-01-30T05:39:10;11.33;;;5.77;;
16127;SDS011;8168;49.036;7.690;2024-01-30T05:41:41;12.07;;;5.40;;
16127;SDS011;8168;49.036;7.690;2024-01-30T05:44:12;6.20;;;4.97;;
16127;SDS011;8168;49.036;7.690;2024-01-30T05:46:43;7.10;;;4.87;;
16127;SDS011;8168;49.036;7.690;2024-01-30T05:49:14;6.17;;;4.83;;
16127;SDS011;8168;49.036;7.690;2024-01-30T05:51:45;5.67;;;4.53;;
16127;SDS011;8168;49.036;7.690;2024-01-30T05:54:16;6.67;;;4.57;;
16127;SDS011;8168;49.036;7.690;2024-01-30T05:56:47;8.10;;;4.20;;
16127;SDS011;8168;49.036;7.690;2024-01-30T05:59:18;7.83;;;4.03;;
16127;SDS011;8168;49.036;7.690;2024-01-30T06:01:49;5.00;;;3.70;;
16127;SDS011;8168;49.036;7.690;2024-01-30T06:04:20;6.63;;;4.63;;
16127;SDS011;8168;49.036;7.690;2024-01-30T06:06:51;6.60;;;4.50;;
16127;SDS011;8168;49.036;7.690;2024-01-30T06:09:22;8.57;;;4.70;;
16127;SDS011;8168;49.036;7.690;2024-01-30T06:11:53;6.20;;;4.43;;
16127;SDS011;8168;49.036;7.690;2024-01-30T06:14:24;6.83;;;4.33;;
16127;SDS011;8168;49.036;7.690;2024-01-30T06:16:55;8.17;;;4.30;;
16127;SDS011;8168;49.036;7.690;2024-01-30T06:19:29;4.73;;;3.63;;
16127;SDS011;8168;49.036;7.690;2024-01-30T06:21:59;4.47;;;3.83;;
16127;SDS011;8168;49.036;7.690;2024-01-30T06:24:30;5.83;;;4.30;;
16127;SDS011;8168;49.036;7.690;2024-01-30T06:27:01;6.30;;;3.90;;
16127;SDS011;8168;49.036;7.690;2024-01-30T06:29:32;6.37;;;4.23;;
16127;SDS011;8168;49.036;7.690;2024-01-30T06:32:03;6.33;;;4.23;;
16127;SDS011;8168;49.036;7.690;2024-01-30T06:34:34;7.87;;;4.50;;
16127;SDS011;8168;49.036;7.690;2024-01-30T06:37:05;6.40;;;4.10;;
16127;SDS011;8168;49.036;7.690;2024-01-30T06:39:36;5.03;;;3.57;;
16127;SDS011;8168;49.036;7.690;2024-01-30T06:42:07;5.90;;;3.80;;
16127;SDS011;8168;49.036;7.690;2024-01-30T06:44:38;6.93;;;4.30;;
16127;SDS011;8168;49.036;7.690;2024-01-30T06:47:09;6.50;;;4.30;;
16127;SDS011;8168;49.036;7.690;2024-01-30T06:49:40;6.80;;;4.27;;
16127;SDS011;8168;49.036;7.690;2024-01-30T06:52:12;4.77;;;3.60;;
16127;SDS011;8168;49.036;7.690;2024-01-30T06:54:44;6.10;;;4.10;;
16127;SDS011;8168;49.036;7.690;2024-01-30T06:57:15;5.53;;;3.83;;
16127;SDS011;8168;49.036;7.690;2024-01-30T06:59:47;7.03;;;4.17;;
16127;SDS011;8168;49.036;7.690;2024-01-30T07:02:18;5.63;;;3.93;;
16127;SDS011;8168;49.036;7.690;2024-01-30T07:04:49;6.50;;;4.03;;
16127;SDS011;8168;49.036;7.690;2024-01-30T07:07:20;7.13;;;4.67;;
16127;SDS011;8168;49.036;7.690;2024-01-30T07:09:51;6.57;;;4.60;;
16127;SDS011;8168;49.036;7.690;2024-01-30T07:12:26;6.17;;;4.30;;
16127;SDS011;8168;49.036;7.690;2024-01-30T07:14:57;4.63;;;3.90;;
16127;SDS011;8168;49.036;7.690;2024-01-30T07:17:29;6.40;;;4.20;;
16127;SDS011;8168;49.036;7.690;2024-01-30T07:20:00;4.80;;;4.20;;
16127;SDS011;8168;49.036;7.690;2024-01-30T07:22:33;5.67;;;4.30;;
16127;SDS011;8168;49.036;7.690;2024-01-30T07:25:04;7.70;;;5.23;;
16127;SDS011;8168;49.036;7.690;2024-01-30T07:27:35;8.33;;;4.47;;
16127;SDS011;8168;49.036;7.690;2024-01-30T07:30:06;7.10;;;4.97;;
16127;SDS011;8168;49.036;7.690;2024-01-30T07:32:37;7.20;;;5.20;;
16127;SDS011;8168;49.036;7.690;2024-01-30T07:35:08;9.00;;;5.73;;
16127;SDS011;8168;49.036;7.690;2024-01-30T07:37:39;7.17;;;5.67;;
16127;SDS011;8168;49.036;7.690;2024-01-30T07:40:09;9.07;;;5.90;;
16127;SDS011;8168;49.036;7.690;2024-01-30T07:42:40;8.73;;;5.67;;
16127;SDS011;8168;49.036;7.690;2024-01-30T07:45:14;8.47;;;6.07;;
16127;SDS011;8168;49.036;7.690;2024-01-30T07:47:45;10.40;;;6.47;;
16127;SDS011;8168;49.036;7.690;2024-01-30T07:50:15;8.30;;;5.93;;
16127;SDS011;8168;49.036;7.690;2024-01-30T07:52:46;12.67;;;6.77;;
16127;SDS011;8168;49.036;7.690;2024-01-30T07:55:21;18.43;;;7.23;;
16127;SDS011;8168;49.036;7.690;2024-01-30T07:57:57;10.03;;;7.00;;
16127;SDS011;8168;49.036;7.690;2024-01-30T08:00:31;12.20;;;6.53;;
16127;SDS011;8168;49.036;7.690;2024-01-30T08:03:02;11.20;;;7.20;;
16127;SDS011;8168;49.036;7.690;2024-01-30T08:05:32;12.90;;;7.93;;
16127;SDS011;8168;49.036;7.690;2024-01-30T08:08:03;14.20;;;7.17;;
16127;SDS011;8168;49.036;7.690;2024-01-30T08:10:34;12.27;;;7.87;;
16127;SDS011;8168;49.036;7.690;2024-01-30T08:13:05;10.37;;;7.87;;
16127;SDS011;8168;49.036;7.690;2024-01-30T08:15:35;13.97;;;8.70;;
16127;SDS011;8168;49.036;7.690;2024-01-30T08:18:06;14.93;;;8.63;;
16127;SDS011;8168;49.036;7.690;2024-01-30T08:20:37;19.27;;;10.50;;
16127;SDS011;8168;49.036;7.690;2024-01-30T08:23:07;18.67;;;11.23;;
16127;SDS011;8168;49.036;7.690;2024-01-30T08:25:38;15.73;;;10.70;;
16127;SDS011;8168;49.036;7.690;2024-01-30T08:28:09;19.30;;;11.80;;
16127;SDS011;8168;49.036;7.690;2024-01-30T08:30:40;17.73;;;12.27;;
16127;SDS011;8168;49.036;7.690;2024-01-30T08:33:11;17.37;;;11.50;;
16127;SDS011;8168;49.036;7.690;2024-01-30T08:35:42;18.33;;;11.10;;
16127;SDS011;8168;49.036;7.690;2024-01-30T08:38:13;16.30;;;9.90;;
16127;SDS011;8168;49.036;7.690;2024-01-30T08:40:44;17.97;;;10.87;;
16127;SDS011;8168;49.036;7.690;2024-01-30T08:43:14;14.10;;;10.13;;
16127;SDS011;8168;49.036;7.690;2024-01-30T08:45:45;18.40;;;12.20;;
16127;SDS011;8168;49.036;7.690;2024-01-30T08:48:16;20.57;;;11.53;;
16127;SDS011;8168;49.036;7.690;2024-01-30T08:50:47;18.27;;;11.33;;
16127;SDS011;8168;49.036;7.690;2024-01-30T08:53:18;15.90;;;11.07;;
16127;SDS011;8168;49.036;7.690;2024-01-30T08:55:49;15.97;;;8.77;;
16127;SDS011;8168;49.036;7.690;2024-01-30T08:58:19;13.23;;;9.00;;
16127;SDS011;8168;49.036;7.690;2024-01-30T09:00:50;15.40;;;9.30;;
16127;SDS011;8168;49.036;7.690;2024-01-30T09:03:21;17.33;;;10.43;;
16127;SDS011;8168;49.036;7.690;2024-01-30T09:05:52;17.20;;;10.40;;
16127;SDS011;8168;49.036;7.690;2024-01-30T09:08:23;15.57;;;9.80;;
16127;SDS011;8168;49.036;7.690;2024-01-30T09:10:53;15.87;;;9.73;;
16127;SDS011;8168;49.036;7.690;2024-01-30T09:13:24;14.23;;;9.70;;
16127;SDS011;8168;49.036;7.690;2024-01-30T09:15:55;14.00;;;9.50;;
16127;SDS011;8168;49.036;7.690;2024-01-30T09:18:26;16.03;;;9.57;;
16127;SDS011;8168;49.036;7.690;2024-01-30T09:20:56;13.83;;;9.03;;
16127;SDS011;8168;49.036;7.690;2024-01-30T09:23:27;14.00;;;8.83;;
16127;SDS011;8168;49.036;7.690;2024-01-30T09:25:58;14.70;;;7.80;;
16127;SDS011;8168;49.036;7.690;2024-01-30T09:28:29;14.20;;;8.77;;
16127;SDS011;8168;49.036;7.690;2024-01-30T09:31:00;13.50;;;8.20;;
16127;SDS011;8168;49.036;7.690;2024-01-30T09:33:30;14.27;;;8.40;;
16127;SDS011;8168;49.036;7.690;2024-01-30T09:36:01;11.60;;;8.47;;
16127;SDS011;8168;49.036;7.690;2024-01-30T09:38:31;13.27;;;9.00;;
16127;SDS011;8168;49.036;7.690;2024-01-30T09:41:03;16.30;;;8.97;;
16127;SDS011;8168;49.036;7.690;2024-01-30T09:43:39;16.60;;;10.40;;
16127;SDS011;8168;49.036;7.690;2024-01-30T09:46:12;14.57;;;10.20;;
16127;SDS011;8168;49.036;7.690;2024-01-30T09:48:46;12.30;;;8.90;;
16127;SDS011;8168;49.036;7.690;2024-01-30T09:51:18;12.53;;;7.97;;
16127;SDS011;8168;49.036;7.690;2024-01-30T09:53:49;18.73;;;9.67;;
16127;SDS011;8168;49.036;7.690;2024-01-30T09:56:19;15.47;;;9.23;;
16127;SDS011;8168;49.036;7.690;2024-01-30T09:58:52;16.90;;;9.67;;
16127;SDS011;8168;49.036;7.690;2024-01-30T10:01:23;13.20;;;8.93;;
16127;SDS011;8168;49.036;7.690;2024-01-30T10:03:54;13.63;;;8.37;;
16127;SDS011;8168;49.036;7.690;2024-01-30T10:06:25;14.87;;;8.97;;
16127;SDS011;8168;49.036;7.690;2024-01-30T10:08:56;20.97;;;12.93;;
16127;SDS011;8168;49.036;7.690;2024-01-30T10:11:26;25.07;;;14.50;;
16127;SDS011;8168;49.036;7.690;2024-01-30T10:13:57;26.70;;;15.87;;
16127;SDS011;8168;49.036;7.690;2024-01-30T10:16:28;19.13;;;11.77;;
16127;SDS011;8168;49.036;7.690;2024-01-30T10:18:59;23.60;;;14.53;;
16127;SDS011;8168;49.036;7.690;2024-01-30T10:21:30;23.67;;;14.50;;
16127;SDS011;8168;49.036;7.690;2024-01-30T10:24:00;17.70;;;11.40;;
16127;SDS011;8168;49.036;7.690;2024-01-30T10:26:31;15.90;;;10.47;;
16127;SDS011;8168;49.036;7.690;2024-01-30T10:29:04;18.13;;;11.80;;
16127;SDS011;8168;49.036;7.690;2024-01-30T10:31:35;18.77;;;11.70;;
16127;SDS011;8168;49.036;7.690;2024-01-30T10:34:05;16.03;;;11.73;;
16127;SDS011;8168;49.036;7.690;2024-01-30T10:36:39;21.00;;;12.77;;
16127;SDS011;8168;49.036;7.690;2024-01-30T10:39:13;22.17;;;12.00;;
16127;SDS011;8168;49.036;7.690;2024-01-30T10:41:47;24.30;;;14.67;;
16127;SDS011;8168;49.036;7.690;2024-01-30T10:44:19;24.53;;;14.80;;
16127;SDS011;8168;49.036;7.690;2024-01-30T10:47:02;26.17;;;15.30;;
16127;SDS011;8168;49.036;7.690;2024-01-30T10:49:36;24.87;;;14.33;;
16127;SDS011;8168;49.036;7.690;2024-01-30T10:52:07;22.37;;;14.37;;
16127;SDS011;8168;49.036;7.690;2024-01-30T10:54:39;17.93;;;12.93;;
16127;SDS011;8168;49.036;7.690;2024-01-30T10:57:11;24.83;;;15.13;;
16127;SDS011;8168;49.036;7.690;2024-01-30T10:59:43;21.13;;;13.90;;
16127;SDS011;8168;49.036;7.690;2024-01-30T11:02:15;22.90;;;13.97;;
16127;SDS011;8168;49.036;7.690;2024-01-30T11:04:46;21.57;;;14.13;;
16127;SDS011;8168;49.036;7.690;2024-01-30T11:07:18;28.20;;;14.63;;
16127;SDS011;8168;49.036;7.690;2024-01-30T11:09:59;24.03;;;16.10;;
16127;SDS011;8168;49.036;7.690;2024-01-30T11:12:31;23.23;;;15.70;;
16127;SDS011;8168;49.036;7.690;2024-01-30T11:17:45;23.63;;;15.63;;
16127;SDS011;8168;49.036;7.690;2024-01-30T11:20:36;20.60;;;14.37;;
16127;SDS011;8168;49.036;7.690;2024-01-30T11:23:07;22.27;;;15.57;;
16127;SDS011;8168;49.036;7.690;2024-01-30T11:25:37;28.43;;;16.40;;
16127;SDS011;8168;49.036;7.690;2024-01-30T11:28:12;26.10;;;16.50;;
16127;SDS011;8168;49.036;7.690;2024-01-30T11:30:46;24.53;;;15.67;;
16127;SDS011;8168;49.036;7.690;2024-01-30T11:33:27;26.97;;;17.50;;
16127;SDS011;8168;49.036;7.690;2024-01-30T11:36:00;23.27;;;15.43;;
16127;SDS011;8168;49.036;7.690;2024-01-30T11:38:32;27.73;;;18.33;;
16127;SDS011;8168;49.036;7.690;2024-01-30T11:41:03;29.27;;;18.20;;
16127;SDS011;8168;49.036;7.690;2024-01-30T11:43:34;25.17;;;16.57;;
16127;SDS011;8168;49.036;7.690;2024-01-30T11:46:05;23.43;;;15.63;;
16127;SDS011;8168;49.036;7.690;2024-01-30T11:48:37;18.57;;;14.77;;
16127;SDS011;8168;49.036;7.690;2024-01-30T11:51:08;22.33;;;16.17;;
16127;SDS011;8168;49.036;7.690;2024-01-30T11:53:38;20.60;;;15.03;;
16127;SDS011;8168;49.036;7.690;2024-01-30T11:56:09;21.20;;;15.07;;
16127;SDS011;8168;49.036;7.690;2024-01-30T11:58:42;18.33;;;12.50;;
16127;SDS011;8168;49.036;7.690;2024-01-30T12:01:14;18.63;;;13.77;;
16127;SDS011;8168;49.036;7.690;2024-01-30T12:03:50;17.07;;;12.60;;
16127;SDS011;8168;49.036;7.690;2024-01-30T12:06:21;18.90;;;12.83;;
16127;SDS011;8168;49.036;7.690;2024-01-30T12:08:58;24.63;;;14.43;;
16127;SDS011;8168;49.036;7.690;2024-01-30T12:11:29;21.53;;;13.93;;
16127;SDS011;8168;49.036;7.690;2024-01-30T12:14:00;19.07;;;14.43;;
16127;SDS011;8168;49.036;7.690;2024-01-30T12:16:31;18.93;;;12.93;;
16127;SDS011;8168;49.036;7.690;2024-01-30T12:19:02;17.90;;;13.90;;
16127;SDS011;8168;49.036;7.690;2024-01-30T12:21:33;21.00;;;16.50;;
16127;SDS011;8168;49.036;7.690;2024-01-30T12:24:04;19.67;;;14.93;;
16127;SDS011;8168;49.036;7.690;2024-01-30T12:26:37;17.97;;;13.50;;
16127;SDS011;8168;49.036;7.690;2024-01-30T12:29:07;21.90;;;16.47;;
16127;SDS011;8168;49.036;7.690;2024-01-30T12:31:38;23.73;;;17.83;;
16127;SDS011;8168;49.036;7.690;2024-01-30T12:34:15;36.03;;;25.77;;
16127;SDS011;8168;49.036;7.690;2024-01-30T12:36:47;24.93;;;18.60;;
16127;SDS011;8168;49.036;7.690;2024-01-30T12:39:19;17.67;;;11.10;;
16127;SDS011;8168;49.036;7.690;2024-01-30T12:41:49;15.17;;;10.90;;
16127;SDS011;8168;49.036;7.690;2024-01-30T12:44:21;13.73;;;8.80;;
16127;SDS011;8168;49.036;7.690;2024-01-30T12:46:52;13.37;;;8.00;;
16127;SDS011;8168;49.036;7.690;2024-01-30T12:49:22;10.27;;;6.13;;
16127;SDS011;8168;49.036;7.690;2024-01-30T12:51:53;8.80;;;5.87;;
16127;SDS011;8168;49.036;7.690;2024-01-30T12:54:24;7.20;;;4.80;;
16127;SDS011;8168;49.036;7.690;2024-01-30T12:56:54;5.40;;;4.47;;
16127;SDS011;8168;49.036;7.690;2024-01-30T12:59:26;6.53;;;4.57;;
16127;SDS011;8168;49.036;7.690;2024-01-30T13:01:58;6.57;;;4.50;;
16127;SDS011;8168;49.036;7.690;2024-01-30T13:04:30;7.13;;;4.70;;
16127;SDS011;8168;49.036;7.690;2024-01-30T13:07:00;7.97;;;5.40;;
16127;SDS011;8168;49.036;7.690;2024-01-30T13:09:31;5.83;;;4.40;;
16127;SDS011;8168;49.036;7.690;2024-01-30T13:12:02;7.30;;;4.20;;
16127;SDS011;8168;49.036;7.690;2024-01-30T13:14:33;5.30;;;4.30;;
16127;SDS011;8168;49.036;7.690;2024-01-30T13:17:04;7.10;;;5.60;;
16127;SDS011;8168;49.036;7.690;2024-01-30T13:19:34;5.13;;;4.63;;
16127;SDS011;8168;49.036;7.690;2024-01-30T13:22:05;9.97;;;6.00;;
16127;SDS011;8168;49.036;7.690;2024-01-30T13:24:36;7.63;;;5.10;;
16127;SDS011;8168;49.036;7.690;2024-01-30T13:27:07;7.97;;;4.60;;
16127;SDS011;8168;49.036;7.690;2024-01-30T13:29:38;6.37;;;4.57;;
16127;SDS011;8168;49.036;7.690;2024-01-30T13:32:09;5.00;;;4.33;;
16127;SDS011;8168;49.036;7.690;2024-01-30T13:34:40;4.97;;;4.13;;
16127;SDS011;8168;49.036;7.690;2024-01-30T13:37:11;5.23;;;3.97;;
16127;SDS011;8168;49.036;7.690;2024-01-30T13:39:42;7.30;;;4.50;;
16127;SDS011;8168;49.036;7.690;2024-01-30T13:42:12;7.50;;;4.97;;
16127;SDS011;8168;49.036;7.690;2024-01-30T13:44:43;6.60;;;3.97;;
16127;SDS011;8168;49.036;7.690;2024-01-30T13:47:14;4.73;;;3.60;;
16127;SDS011;8168;49.036;7.690;2024-01-30T13:49:44;7.80;;;4.20;;
16127;SDS011;8168;49.036;7.690;2024-01-30T13:52:15;6.47;;;3.77;;
16127;SDS011;8168;49.036;7.690;2024-01-30T13:54:45;4.97;;;3.67;;
16127;SDS011;8168;49.036;7.690;2024-01-30T13:57:16;6.20;;;3.93;;
16127;SDS011;8168;49.036;7.690;2024-01-30T13:59:47;5.33;;;3.67;;
16127;SDS011;8168;49.036;7.690;2024-01-30T14:02:17;4.40;;;3.90;;
16127;SDS011;8168;49.036;7.690;2024-01-30T14:04:48;5.43;;;3.63;;
16127;SDS011;8168;49.036;7.690;2024-01-30T14:07:19;6.43;;;3.43;;
16127;SDS011;8168;49.036;7.690;2024-01-30T14:09:49;5.40;;;3.77;;
16127;SDS011;8168;49.036;7.690;2024-01-30T14:12:20;5.17;;;4.03;;
16127;SDS011;8168;49.036;7.690;2024-01-30T14:14:50;5.57;;;4.37;;
16127;SDS011;8168;49.036;7.690;2024-01-30T14:17:21;7.20;;;3.70;;
16127;SDS011;8168;49.036;7.690;2024-01-30T14:19:52;5.37;;;3.53;;
16127;SDS011;8168;49.036;7.690;2024-01-30T14:22:22;6.30;;;3.73;;
16127;SDS011;8168;49.036;7.690;2024-01-30T14:24:53;6.20;;;5.00;;
16127;SDS011;8168;49.036;7.690;2024-01-30T14:27:23;6.07;;;3.67;;
16127;SDS011;8168;49.036;7.690;2024-01-30T14:29:55;5.63;;;4.43;;
16127;SDS011;8168;49.036;7.690;2024-01-30T14:32:26;5.23;;;4.13;;
16127;SDS011;8168;49.036;7.690;2024-01-30T14:34:57;4.93;;;4.17;;
16127;SDS011;8168;49.036;7.690;2024-01-30T14:37:27;10.27;;;4.80;;
16127;SDS011;8168;49.036;7.690;2024-01-30T14:40:00;4.43;;;4.00;;
16127;SDS011;8168;49.036;7.690;2024-01-30T14:42:30;4.90;;;4.27;;
16127;SDS011;8168;49.036;7.690;2024-01-30T14:45:02;6.37;;;4.43;;
16127;SDS011;8168;49.036;7.690;2024-01-30T14:47:34;7.57;;;4.23;;
16127;SDS011;8168;49.036;7.690;2024-01-30T14:50:08;5.43;;;4.43;;
16127;SDS011;8168;49.036;7.690;2024-01-30T14:52:38;5.90;;;4.47;;
16127;SDS011;8168;49.036;7.690;2024-01-30T14:55:10;7.30;;;4.77;;
16127;SDS011;8168;49.036;7.690;2024-01-30T14:57:41;7.03;;;4.23;;
16127;SDS011;8168;49.036;7.690;2024-01-30T15:00:13;6.47;;;4.40;;
16127;SDS011;8168;49.036;7.690;2024-01-30T15:02:45;6.90;;;4.33;;
16127;SDS011;8168;49.036;7.690;2024-01-30T15:05:16;5.40;;;4.33;;
16127;SDS011;8168;49.036;7.690;2024-01-30T15:07:47;7.17;;;4.53;;
16127;SDS011;8168;49.036;7.690;2024-01-30T15:10:18;8.73;;;4.67;;
16127;SDS011;8168;49.036;7.690;2024-01-30T15:12:48;6.47;;;4.57;;
16127;SDS011;8168;49.036;7.690;2024-01-30T15:15:19;7.97;;;4.70;;
16127;SDS011;8168;49.036;7.690;2024-01-30T15:17:50;7.53;;;4.60;;